EDT,Max TemperatureF,Mean TemperatureF,Min TemperatureF,Max Dew PointF,MeanDew PointF,Min DewpointF,Max Humidity, Mean Humidity, Min Humidity, Max Sea Level PressureIn, Mean Sea Level PressureIn, Min Sea Level PressureIn, Max VisibilityMiles, Mean VisibilityMiles, Min VisibilityMiles, Max Wind SpeedMPH, Mean Wind SpeedMPH, Max Gust SpeedMPH,PrecipitationIn, CloudCover, Events, WindDirDegrees
2012-3-1,32,29,26,28,26,24,93,90,80,29.75,29.66,29.54,10,8,2,15,9,18,0.00,8,Snow,52
2012-3-2,33,30,28,30,29,27,100,92,75,29.76,29.62,29.35,10,3,0,14,6,18,0.01,8,Fog-Snow,199
2012-3-3,31,24,16,29,22,12,93,87,79,29.75,29.46,29.28,4,1,0,24,16,30,0.00,8,Snow,3
2012-3-4,16,12,7,13,9,3,86,81,68,29.97,29.84,29.75,10,4,1,14,7,16,0.00,8,Snow,10
2012-3-5,26,14,1,19,8,-2,87,78,54,30.16,30.07,29.97,10,8,2,16,3,18,0.00,6,Snow,207
2012-3-6,39,30,22,30,25,19,93,82,70,30.08,29.87,29.67,10,9,5,21,15,29,0.00,5,,189
2012-3-7,49,40,33,43,34,31,93,82,62,29.67,29.63,29.51,10,8,2,20,10,25,0.01,4,Rain,212
2012-3-8,33,28,23,32,21,12,90,77,47,29.94,29.82,29.65,10,8,0,20,12,28,0.02,7,Snow,328
2012-3-9,25,20,15,22,10,0,86,65,34,30.43,30.23,29.93,10,7,1,32,14,45,0.00,5,Snow,314
2012-3-10,51,35,19,27,17,8,71,59,33,30.39,30.09,29.83,10,10,7,26,14,36,0.00,4,,193
2012-3-11,61,48,35,32,28,25,67,51,27,30.02,29.97,29.91,10,10,10,18,3,9,0.00,0,,196
2012-3-12,66,52,39,43,36,29,100,79,26,30.19,29.81,29.60,10,7,0,15,9,17,0.00,5,Fog-Rain,186
2012-3-13,51,41,30,41,28,7,94,65,16,30.00,29.79,29.63,10,9,4,24,10,33,0.00,3,,263
2012-3-14,60,43,26,41,27,14,85,63,41,30.00,29.92,29.79,10,10,10,18,3,23,0.00,0,,179
2012-3-15,50,42,33,39,30,21,88,64,35,30.06,29.98,29.87,10,10,7,14,5,17,0.00,1,,12
2012-3-16,62,45,28,33,25,16,80,56,16,30.09,30.04,29.99,10,10,10,15,2,18,0.00,1,,178
2012-3-17,75,57,39,55,45,33,100,78,50,29.99,29.93,29.86,10,6,0,22,11,28,0.00,5,Fog,188
2012-3-18,77,62,48,55,50,46,93,78,44,29.96,29.92,29.87,10,9,5,18,8,32,0.00,0,Fog,178
2012-3-19,75,60,46,57,51,45,93,74,50,29.95,29.91,29.88,10,10,7,22,11,29,0.00,1,,182
2012-3-20,78,64,51,55,52,48,94,76,34,30.00,29.93,29.89,10,8,4,25,11,33,0.00,1,,181
2012-3-21,80,66,52,52,48,45,84,68,30,30.11,30.02,29.96,10,10,10,22,6,31,0.00,2,,183
2012-3-22,55,50,44,52,48,43,94,87,71,30.22,30.16,30.11,10,9,4,13,4,,0.00,7,Rain,43
2012-3-23,55,49,43,52,46,42,94,91,84,30.15,30.05,29.96,10,9,4,12,1,,0.00,7,Rain,139
2012-3-24,59,52,46,45,41,37,83,71,51,29.96,29.93,29.89,10,10,10,9,3,,0.00,7,,108
2012-3-25,50,38,27,46,33,17,93,78,65,30.31,30.07,29.92,10,9,2,26,7,30,0.00,7,Snow,13
2012-3-26,35,30,24,21,17,12,74,62,47,30.47,30.36,30.26,10,10,10,21,14,25,0.00,4,,34
2012-3-27,48,38,28,35,24,5,86,61,17,30.26,29.93,29.51,20,10,10,34,14,44,0.00,6,Snow,178
2012-3-28,48,40,33,41,33,28,87,74,62,30.06,29.73,29.52,10,10,5,23,10,31,0.00,8,Rain,319
2012-3-29,34,31,28,30,27,23,93,81,65,30.20,30.12,30.06,10,10,2,14,9,20,0.00,8,Snow,29
2012-3-30,35,32,29,29,26,23,87,78,65,30.08,29.97,29.91,10,10,2,15,6,21,0.00,7,Snow,130
2012-3-31,42,36,30,33,30,28,93,84,65,30.00,29.91,29.77,10,8,1,21,8,25,0.00,8,,172